Terminal Aerodrome Forecast
Issued by NWS

Home | Current Version | Previous Version | Text Only | Print | Product List | Glossary On
Versions: 1 2 3 4 5 6 7 8 9 10 11 12 13 14 15 16 17 18 19
920
FTUS43 KDLH 270538
TAFBRD
TAF
KBRD 270538Z 2706/2806 00000KT P6SM SKC
     FM271800 01005KT P6SM BKN050
     FM280100 00000KT P6SM SCT050=

USA.gov is the U.S. government's official web portal to all federal, state and local government web resources and services.